sensor_id;sensor_type;location;lat;lon;timestamp;P1;durP1;ratioP1;P2;durP2;ratioP2
14187;SDS011;7175;51.978;5.330;2023-04-24T00:01:50;98.07;;;91.27;;
14187;SDS011;7175;51.978;5.330;2023-04-24T00:04:18;94.27;;;87.67;;
14187;SDS011;7175;51.978;5.330;2023-04-24T00:06:47;95.77;;;89.17;;
14187;SDS011;7175;51.978;5.330;2023-04-24T00:09:21;98.67;;;91.90;;
14187;SDS011;7175;51.978;5.330;2023-04-24T00:11:49;92.90;;;86.30;;
14187;SDS011;7175;51.978;5.330;2023-04-24T00:14:17;96.23;;;89.53;;
14187;SDS011;7175;51.978;5.330;2023-04-24T00:16:46;94.07;;;87.27;;
14187;SDS011;7175;51.978;5.330;2023-04-24T00:19:15;92.17;;;85.47;;
14187;SDS011;7175;51.978;5.330;2023-04-24T00:21:43;95.90;;;89.10;;
14187;SDS011;7175;51.978;5.330;2023-04-24T00:24:12;95.13;;;88.23;;
14187;SDS011;7175;51.978;5.330;2023-04-24T00:26:41;95.10;;;88.30;;
14187;SDS011;7175;51.978;5.330;2023-04-24T00:29:09;95.90;;;89.00;;
14187;SDS011;7175;51.978;5.330;2023-04-24T00:31:37;96.63;;;89.83;;
14187;SDS011;7175;51.978;5.330;2023-04-24T00:34:06;97.03;;;90.07;;
14187;SDS011;7175;51.978;5.330;2023-04-24T00:36:34;96.40;;;89.50;;
14187;SDS011;7175;51.978;5.330;2023-04-24T00:39:02;95.83;;;88.97;;
14187;SDS011;7175;51.978;5.330;2023-04-24T00:41:30;97.90;;;90.90;;
14187;SDS011;7175;51.978;5.330;2023-04-24T00:44:00;99.33;;;92.33;;
14187;SDS011;7175;51.978;5.330;2023-04-24T00:46:28;100.43;;;93.33;;
14187;SDS011;7175;51.978;5.330;2023-04-24T00:48:57;99.80;;;92.70;;
14187;SDS011;7175;51.978;5.330;2023-04-24T00:51:26;99.17;;;92.03;;
14187;SDS011;7175;51.978;5.330;2023-04-24T00:53:54;100.37;;;93.27;;
14187;SDS011;7175;51.978;5.330;2023-04-24T00:56:23;96.97;;;90.17;;
14187;SDS011;7175;51.978;5.330;2023-04-24T00:58:51;97.63;;;90.83;;
14187;SDS011;7175;51.978;5.330;2023-04-24T01:01:21;99.57;;;92.70;;
14187;SDS011;7175;51.978;5.330;2023-04-24T01:03:50;98.07;;;91.17;;
14187;SDS011;7175;51.978;5.330;2023-04-24T01:06:20;95.13;;;88.33;;
14187;SDS011;7175;51.978;5.330;2023-04-24T01:08:49;93.93;;;87.13;;
14187;SDS011;7175;51.978;5.330;2023-04-24T01:11:17;95.57;;;88.67;;
14187;SDS011;7175;51.978;5.330;2023-04-24T01:13:46;97.37;;;90.33;;
14187;SDS011;7175;51.978;5.330;2023-04-24T01:16:15;98.53;;;91.47;;
14187;SDS011;7175;51.978;5.330;2023-04-24T01:18:45;96.50;;;89.60;;
14187;SDS011;7175;51.978;5.330;2023-04-24T01:21:14;96.73;;;89.80;;
14187;SDS011;7175;51.978;5.330;2023-04-24T01:23:44;100.77;;;93.60;;
14187;SDS011;7175;51.978;5.330;2023-04-24T01:26:13;98.83;;;91.73;;
14187;SDS011;7175;51.978;5.330;2023-04-24T01:28:43;99.27;;;92.07;;
14187;SDS011;7175;51.978;5.330;2023-04-24T01:31:11;100.67;;;93.47;;
14187;SDS011;7175;51.978;5.330;2023-04-24T01:33:40;104.03;;;96.33;;
14187;SDS011;7175;51.978;5.330;2023-04-24T01:36:09;101.23;;;94.10;;
14187;SDS011;7175;51.978;5.330;2023-04-24T01:38:38;103.93;;;96.67;;
14187;SDS011;7175;51.978;5.330;2023-04-24T01:41:08;99.73;;;92.60;;
14187;SDS011;7175;51.978;5.330;2023-04-24T01:43:36;102.33;;;95.07;;
14187;SDS011;7175;51.978;5.330;2023-04-24T01:46:05;103.90;;;96.47;;
14187;SDS011;7175;51.978;5.330;2023-04-24T01:48:34;104.67;;;97.17;;
14187;SDS011;7175;51.978;5.330;2023-04-24T01:51:03;102.70;;;95.40;;
14187;SDS011;7175;51.978;5.330;2023-04-24T01:53:31;105.73;;;98.13;;
14187;SDS011;7175;51.978;5.330;2023-04-24T01:55:59;107.00;;;99.43;;
14187;SDS011;7175;51.978;5.330;2023-04-24T01:58:30;112.90;;;104.93;;
14187;SDS011;7175;51.978;5.330;2023-04-24T02:00:58;113.30;;;105.10;;
14187;SDS011;7175;51.978;5.330;2023-04-24T02:03:27;110.57;;;102.37;;
14187;SDS011;7175;51.978;5.330;2023-04-24T02:05:56;113.80;;;105.40;;
14187;SDS011;7175;51.978;5.330;2023-04-24T02:08:24;112.93;;;104.83;;
14187;SDS011;7175;51.978;5.330;2023-04-24T02:10:52;109.87;;;101.87;;
14187;SDS011;7175;51.978;5.330;2023-04-24T02:13:20;110.00;;;102.10;;
14187;SDS011;7175;51.978;5.330;2023-04-24T02:15:49;113.37;;;105.37;;
14187;SDS011;7175;51.978;5.330;2023-04-24T02:18:18;111.20;;;103.00;;
14187;SDS011;7175;51.978;5.330;2023-04-24T02:20:46;109.53;;;101.50;;
14187;SDS011;7175;51.978;5.330;2023-04-24T02:23:14;109.00;;;100.90;;
14187;SDS011;7175;51.978;5.330;2023-04-24T02:25:42;108.80;;;100.80;;
14187;SDS011;7175;51.978;5.330;2023-04-24T02:28:10;110.30;;;102.37;;
14187;SDS011;7175;51.978;5.330;2023-04-24T02:30:38;114.60;;;106.50;;
14187;SDS011;7175;51.978;5.330;2023-04-24T02:33:08;111.37;;;103.47;;
14187;SDS011;7175;51.978;5.330;2023-04-24T02:35:36;109.57;;;101.77;;
14187;SDS011;7175;51.978;5.330;2023-04-24T02:38:04;108.47;;;100.67;;
14187;SDS011;7175;51.978;5.330;2023-04-24T02:40:33;111.17;;;102.97;;
14187;SDS011;7175;51.978;5.330;2023-04-24T02:43:01;105.77;;;98.17;;
14187;SDS011;7175;51.978;5.330;2023-04-24T02:45:29;104.90;;;97.30;;
14187;SDS011;7175;51.978;5.330;2023-04-24T02:47:57;107.47;;;99.87;;
14187;SDS011;7175;51.978;5.330;2023-04-24T02:50:27;106.87;;;99.27;;
14187;SDS011;7175;51.978;5.330;2023-04-24T02:52:55;107.87;;;99.30;;
14187;SDS011;7175;51.978;5.330;2023-04-24T02:55:24;110.73;;;102.83;;
14187;SDS011;7175;51.978;5.330;2023-04-24T02:57:52;110.57;;;102.87;;
14187;SDS011;7175;51.978;5.330;2023-04-24T03:00:20;111.43;;;103.67;;
14187;SDS011;7175;51.978;5.330;2023-04-24T03:02:48;112.80;;;104.80;;
14187;SDS011;7175;51.978;5.330;2023-04-24T03:05:17;107.93;;;100.20;;
14187;SDS011;7175;51.978;5.330;2023-04-24T03:07:47;114.97;;;106.80;;
14187;SDS011;7175;51.978;5.330;2023-04-24T03:10:15;112.60;;;104.37;;
14187;SDS011;7175;51.978;5.330;2023-04-24T03:12:44;111.03;;;102.83;;
14187;SDS011;7175;51.978;5.330;2023-04-24T03:15:12;114.00;;;105.67;;
14187;SDS011;7175;51.978;5.330;2023-04-24T03:17:40;115.90;;;107.30;;
14187;SDS011;7175;51.978;5.330;2023-04-24T03:20:09;114.27;;;105.67;;
14187;SDS011;7175;51.978;5.330;2023-04-24T03:22:38;116.13;;;107.40;;
14187;SDS011;7175;51.978;5.330;2023-04-24T03:25:08;113.73;;;105.03;;
14187;SDS011;7175;51.978;5.330;2023-04-24T03:27:36;115.53;;;106.87;;
14187;SDS011;7175;51.978;5.330;2023-04-24T03:30:06;112.47;;;104.27;;
14187;SDS011;7175;51.978;5.330;2023-04-24T03:32:35;112.17;;;103.00;;
14187;SDS011;7175;51.978;5.330;2023-04-24T03:35:03;108.30;;;100.40;;
14187;SDS011;7175;51.978;5.330;2023-04-24T03:37:32;108.20;;;100.57;;
14187;SDS011;7175;51.978;5.330;2023-04-24T03:40:00;111.90;;;104.00;;
14187;SDS011;7175;51.978;5.330;2023-04-24T03:42:30;109.23;;;101.53;;
14187;SDS011;7175;51.978;5.330;2023-04-24T03:44:58;110.07;;;102.27;;
14187;SDS011;7175;51.978;5.330;2023-04-24T03:47:26;111.00;;;103.10;;
14187;SDS011;7175;51.978;5.330;2023-04-24T03:49:54;111.27;;;103.47;;
14187;SDS011;7175;51.978;5.330;2023-04-24T03:52:23;113.50;;;105.20;;
14187;SDS011;7175;51.978;5.330;2023-04-24T03:54:51;112.23;;;104.07;;
14187;SDS011;7175;51.978;5.330;2023-04-24T03:57:19;112.20;;;104.10;;
14187;SDS011;7175;51.978;5.330;2023-04-24T03:59:48;112.73;;;104.53;;
14187;SDS011;7175;51.978;5.330;2023-04-24T04:02:18;113.30;;;105.00;;
14187;SDS011;7175;51.978;5.330;2023-04-24T04:04:47;107.40;;;99.10;;
14187;SDS011;7175;51.978;5.330;2023-04-24T04:07:15;110.80;;;102.10;;
14187;SDS011;7175;51.978;5.330;2023-04-24T04:09:43;114.30;;;105.70;;
14187;SDS011;7175;51.978;5.330;2023-04-24T04:12:12;110.77;;;102.07;;
14187;SDS011;7175;51.978;5.330;2023-04-24T04:14:40;111.73;;;102.97;;
14187;SDS011;7175;51.978;5.330;2023-04-24T04:17:10;110.50;;;101.70;;
14187;SDS011;7175;51.978;5.330;2023-04-24T04:19:38;113.03;;;104.07;;
14187;SDS011;7175;51.978;5.330;2023-04-24T04:22:07;129.77;;;120.17;;
14187;SDS011;7175;51.978;5.330;2023-04-24T04:24:35;126.97;;;117.47;;
14187;SDS011;7175;51.978;5.330;2023-04-24T04:27:04;126.77;;;117.17;;
14187;SDS011;7175;51.978;5.330;2023-04-24T04:29:33;124.37;;;114.67;;
14187;SDS011;7175;51.978;5.330;2023-04-24T04:32:04;127.93;;;118.10;;
14187;SDS011;7175;51.978;5.330;2023-04-24T04:34:34;125.67;;;115.93;;
14187;SDS011;7175;51.978;5.330;2023-04-24T04:37:04;122.77;;;113.47;;
14187;SDS011;7175;51.978;5.330;2023-04-24T04:39:32;122.50;;;113.20;;
14187;SDS011;7175;51.978;5.330;2023-04-24T04:42:00;126.07;;;116.87;;
14187;SDS011;7175;51.978;5.330;2023-04-24T04:44:28;124.10;;;115.10;;
14187;SDS011;7175;51.978;5.330;2023-04-24T04:46:57;124.30;;;115.40;;
14187;SDS011;7175;51.978;5.330;2023-04-24T04:49:26;129.00;;;120.00;;
14187;SDS011;7175;51.978;5.330;2023-04-24T04:51:57;119.17;;;110.50;;
14187;SDS011;7175;51.978;5.330;2023-04-24T04:54:25;121.80;;;113.00;;
14187;SDS011;7175;51.978;5.330;2023-04-24T04:56:53;125.17;;;116.07;;
14187;SDS011;7175;51.978;5.330;2023-04-24T04:59:21;124.83;;;115.67;;
14187;SDS011;7175;51.978;5.330;2023-04-24T05:01:49;124.00;;;114.97;;
14187;SDS011;7175;51.978;5.330;2023-04-24T05:04:18;121.97;;;113.00;;
14187;SDS011;7175;51.978;5.330;2023-04-24T05:06:46;128.60;;;119.30;;
14187;SDS011;7175;51.978;5.330;2023-04-24T05:09:16;120.33;;;111.63;;
14187;SDS011;7175;51.978;5.330;2023-04-24T05:11:44;122.53;;;113.53;;
14187;SDS011;7175;51.978;5.330;2023-04-24T05:14:12;131.50;;;122.10;;
14187;SDS011;7175;51.978;5.330;2023-04-24T05:16:40;128.40;;;118.90;;
14187;SDS011;7175;51.978;5.330;2023-04-24T05:19:08;126.20;;;116.80;;
14187;SDS011;7175;51.978;5.330;2023-04-24T05:21:38;125.23;;;115.83;;
14187;SDS011;7175;51.978;5.330;2023-04-24T05:24:06;127.53;;;117.83;;
14187;SDS011;7175;51.978;5.330;2023-04-24T05:26:36;127.20;;;117.50;;
14187;SDS011;7175;51.978;5.330;2023-04-24T05:29:04;130.13;;;120.23;;
14187;SDS011;7175;51.978;5.330;2023-04-24T05:31:32;121.70;;;112.30;;
14187;SDS011;7175;51.978;5.330;2023-04-24T05:34:00;127.27;;;117.57;;
14187;SDS011;7175;51.978;5.330;2023-04-24T05:36:28;124.30;;;114.80;;
14187;SDS011;7175;51.978;5.330;2023-04-24T05:38:57;124.60;;;115.10;;
14187;SDS011;7175;51.978;5.330;2023-04-24T05:41:25;125.27;;;115.77;;
14187;SDS011;7175;51.978;5.330;2023-04-24T05:43:54;123.70;;;114.40;;
14187;SDS011;7175;51.978;5.330;2023-04-24T05:46:22;122.37;;;113.07;;
14187;SDS011;7175;51.978;5.330;2023-04-24T05:48:51;119.03;;;109.83;;
14187;SDS011;7175;51.978;5.330;2023-04-24T05:51:19;122.83;;;113.50;;
14187;SDS011;7175;51.978;5.330;2023-04-24T05:53:47;120.47;;;111.23;;
14187;SDS011;7175;51.978;5.330;2023-04-24T05:56:15;119.57;;;110.43;;
14187;SDS011;7175;51.978;5.330;2023-04-24T05:58:43;120.83;;;111.70;;
14187;SDS011;7175;51.978;5.330;2023-04-24T06:01:13;116.83;;;107.83;;
14187;SDS011;7175;51.978;5.330;2023-04-24T06:03:42;121.17;;;111.87;;
14187;SDS011;7175;51.978;5.330;2023-04-24T06:06:12;117.40;;;108.30;;
14187;SDS011;7175;51.978;5.330;2023-04-24T06:08:40;116.90;;;107.70;;
14187;SDS011;7175;51.978;5.330;2023-04-24T06:11:09;118.67;;;109.43;;
14187;SDS011;7175;51.978;5.330;2023-04-24T06:13:37;117.20;;;108.00;;
14187;SDS011;7175;51.978;5.330;2023-04-24T06:16:05;122.60;;;113.30;;
14187;SDS011;7175;51.978;5.330;2023-04-24T06:18:34;114.93;;;105.93;;
14187;SDS011;7175;51.978;5.330;2023-04-24T06:21:03;116.33;;;107.23;;
14187;SDS011;7175;51.978;5.330;2023-04-24T06:23:31;120.60;;;111.30;;
14187;SDS011;7175;51.978;5.330;2023-04-24T06:25:59;118.40;;;109.10;;
14187;SDS011;7175;51.978;5.330;2023-04-24T06:28:27;116.47;;;107.47;;
14187;SDS011;7175;51.978;5.330;2023-04-24T06:30:56;114.97;;;105.97;;
14187;SDS011;7175;51.978;5.330;2023-04-24T06:33:24;113.90;;;105.00;;
14187;SDS011;7175;51.978;5.330;2023-04-24T06:35:53;112.47;;;103.60;;
14187;SDS011;7175;51.978;5.330;2023-04-24T06:38:21;111.87;;;103.07;;
14187;SDS011;7175;51.978;5.330;2023-04-24T06:40:50;108.17;;;99.53;;
14187;SDS011;7175;51.978;5.330;2023-04-24T06:43:18;110.90;;;102.10;;
14187;SDS011;7175;51.978;5.330;2023-04-24T06:45:46;112.07;;;103.20;;
14187;SDS011;7175;51.978;5.330;2023-04-24T06:48:14;114.37;;;105.33;;
14187;SDS011;7175;51.978;5.330;2023-04-24T06:50:43;112.30;;;103.40;;
14187;SDS011;7175;51.978;5.330;2023-04-24T06:53:13;109.83;;;100.97;;
14187;SDS011;7175;51.978;5.330;2023-04-24T06:55:41;105.43;;;96.73;;
14187;SDS011;7175;51.978;5.330;2023-04-24T06:58:11;107.43;;;99.13;;
14187;SDS011;7175;51.978;5.330;2023-04-24T07:00:39;108.17;;;99.67;;
14187;SDS011;7175;51.978;5.330;2023-04-24T07:03:07;106.43;;;97.93;;
14187;SDS011;7175;51.978;5.330;2023-04-24T07:05:36;111.53;;;103.03;;
14187;SDS011;7175;51.978;5.330;2023-04-24T07:08:04;111.33;;;102.53;;
14187;SDS011;7175;51.978;5.330;2023-04-24T07:10:35;108.97;;;100.37;;
14187;SDS011;7175;51.978;5.330;2023-04-24T07:13:03;105.30;;;97.00;;
14187;SDS011;7175;51.978;5.330;2023-04-24T07:15:33;106.17;;;98.07;;
14187;SDS011;7175;51.978;5.330;2023-04-24T07:18:01;104.17;;;96.07;;
14187;SDS011;7175;51.978;5.330;2023-04-24T07:20:31;104.70;;;96.60;;
14187;SDS011;7175;51.978;5.330;2023-04-24T07:22:59;108.00;;;99.70;;
14187;SDS011;7175;51.978;5.330;2023-04-24T07:25:28;108.37;;;100.00;;
14187;SDS011;7175;51.978;5.330;2023-04-24T07:27:57;102.17;;;94.30;;
14187;SDS011;7175;51.978;5.330;2023-04-24T07:30:25;103.93;;;95.93;;
14187;SDS011;7175;51.978;5.330;2023-04-24T07:32:55;103.90;;;95.80;;
14187;SDS011;7175;51.978;5.330;2023-04-24T07:35:23;113.63;;;105.03;;
14187;SDS011;7175;51.978;5.330;2023-04-24T07:37:52;115.20;;;106.50;;
14187;SDS011;7175;51.978;5.330;2023-04-24T07:40:20;114.13;;;105.43;;
14187;SDS011;7175;51.978;5.330;2023-04-24T07:42:49;114.50;;;105.70;;
14187;SDS011;7175;51.978;5.330;2023-04-24T07:45:18;116.80;;;107.93;;
14187;SDS011;7175;51.978;5.330;2023-04-24T07:47:47;117.90;;;108.90;;
14187;SDS011;7175;51.978;5.330;2023-04-24T07:50:15;115.07;;;106.07;;
14187;SDS011;7175;51.978;5.330;2023-04-24T07:52:43;121.47;;;112.37;;
14187;SDS011;7175;51.978;5.330;2023-04-24T07:55:11;119.77;;;110.87;;
14187;SDS011;7175;51.978;5.330;2023-04-24T07:57:40;121.70;;;112.80;;
14187;SDS011;7175;51.978;5.330;2023-04-24T08:00:08;116.70;;;108.10;;
14187;SDS011;7175;51.978;5.330;2023-04-24T08:02:41;116.67;;;106.60;;
14187;SDS011;7175;51.978;5.330;2023-04-24T08:05:09;114.33;;;105.83;;
14187;SDS011;7175;51.978;5.330;2023-04-24T08:07:38;108.83;;;100.53;;
14187;SDS011;7175;51.978;5.330;2023-04-24T08:10:09;101.30;;;93.33;;
14187;SDS011;7175;51.978;5.330;2023-04-24T08:12:38;104.73;;;96.63;;
14187;SDS011;7175;51.978;5.330;2023-04-24T08:15:06;103.13;;;95.33;;
14187;SDS011;7175;51.978;5.330;2023-04-24T08:17:35;102.00;;;94.00;;
14187;SDS011;7175;51.978;5.330;2023-04-24T08:20:06;112.17;;;103.97;;
14187;SDS011;7175;51.978;5.330;2023-04-24T08:22:40;113.67;;;105.57;;
14187;SDS011;7175;51.978;5.330;2023-04-24T08:25:08;109.87;;;102.07;;
14187;SDS011;7175;51.978;5.330;2023-04-24T08:27:37;104.97;;;97.57;;
14187;SDS011;7175;51.978;5.330;2023-04-24T08:30:06;107.23;;;99.67;;
14187;SDS011;7175;51.978;5.330;2023-04-24T08:32:35;107.03;;;99.43;;
14187;SDS011;7175;51.978;5.330;2023-04-24T08:35:06;106.90;;;99.30;;
14187;SDS011;7175;51.978;5.330;2023-04-24T08:37:36;98.47;;;91.57;;
14187;SDS011;7175;51.978;5.330;2023-04-24T08:40:05;96.37;;;89.67;;
14187;SDS011;7175;51.978;5.330;2023-04-24T08:42:37;91.30;;;85.00;;
14187;SDS011;7175;51.978;5.330;2023-04-24T08:45:06;83.17;;;77.47;;
14187;SDS011;7175;51.978;5.330;2023-04-24T08:47:36;78.40;;;73.10;;
14187;SDS011;7175;51.978;5.330;2023-04-24T08:50:08;76.67;;;71.37;;
14187;SDS011;7175;51.978;5.330;2023-04-24T08:52:37;73.60;;;68.50;;
14187;SDS011;7175;51.978;5.330;2023-04-24T08:55:05;66.93;;;62.23;;
14187;SDS011;7175;51.978;5.330;2023-04-24T08:57:34;63.70;;;59.20;;
14187;SDS011;7175;51.978;5.330;2023-04-24T09:00:06;66.40;;;61.70;;
14187;SDS011;7175;51.978;5.330;2023-04-24T09:02:39;63.83;;;59.33;;
14187;SDS011;7175;51.978;5.330;2023-04-24T09:05:11;66.50;;;61.80;;
14187;SDS011;7175;51.978;5.330;2023-04-24T09:07:41;62.10;;;57.80;;
14187;SDS011;7175;51.978;5.330;2023-04-24T09:10:12;57.87;;;53.93;;
14187;SDS011;7175;51.978;5.330;2023-04-24T09:12:41;65.10;;;58.50;;
14187;SDS011;7175;51.978;5.330;2023-04-24T09:15:12;57.33;;;53.43;;
14187;SDS011;7175;51.978;5.330;2023-04-24T09:17:42;61.93;;;57.73;;
14187;SDS011;7175;51.978;5.330;2023-04-24T09:20:12;52.20;;;48.60;;
14187;SDS011;7175;51.978;5.330;2023-04-24T09:22:41;47.60;;;44.20;;
14187;SDS011;7175;51.978;5.330;2023-04-24T09:25:10;37.60;;;34.70;;
14187;SDS011;7175;51.978;5.330;2023-04-24T09:27:41;40.20;;;37.20;;
14187;SDS011;7175;51.978;5.330;2023-04-24T09:30:12;36.93;;;34.13;;
14187;SDS011;7175;51.978;5.330;2023-04-24T09:32:41;35.97;;;33.27;;
14187;SDS011;7175;51.978;5.330;2023-04-24T09:35:10;33.47;;;30.87;;
14187;SDS011;7175;51.978;5.330;2023-04-24T09:37:41;35.37;;;32.67;;
14187;SDS011;7175;51.978;5.330;2023-04-24T09:40:12;34.90;;;32.20;;
14187;SDS011;7175;51.978;5.330;2023-04-24T09:42:45;35.37;;;32.67;;
14187;SDS011;7175;51.978;5.330;2023-04-24T09:45:18;33.03;;;30.43;;
14187;SDS011;7175;51.978;5.330;2023-04-24T09:47:50;29.13;;;26.83;;
14187;SDS011;7175;51.978;5.330;2023-04-24T09:50:21;27.30;;;25.03;;
14187;SDS011;7175;51.978;5.330;2023-04-24T09:52:55;24.67;;;22.57;;
14187;SDS011;7175;51.978;5.330;2023-04-24T09:55:25;23.13;;;21.23;;
14187;SDS011;7175;51.978;5.330;2023-04-24T09:57:54;23.37;;;21.37;;
14187;SDS011;7175;51.978;5.330;2023-04-24T10:00:24;22.83;;;20.93;;
14187;SDS011;7175;51.978;5.330;2023-04-24T10:02:57;22.80;;;20.80;;
14187;SDS011;7175;51.978;5.330;2023-04-24T10:05:28;22.63;;;20.73;;
14187;SDS011;7175;51.978;5.330;2023-04-24T10:07:59;22.90;;;21.00;;
14187;SDS011;7175;51.978;5.330;2023-04-24T10:10:29;21.83;;;19.93;;
14187;SDS011;7175;51.978;5.330;2023-04-24T10:12:58;22.40;;;20.50;;
14187;SDS011;7175;51.978;5.330;2023-04-24T10:15:27;21.93;;;20.13;;
14187;SDS011;7175;51.978;5.330;2023-04-24T10:17:55;21.63;;;19.83;;
14187;SDS011;7175;51.978;5.330;2023-04-24T10:20:28;21.77;;;19.87;;
14187;SDS011;7175;51.978;5.330;2023-04-24T10:22:57;22.13;;;20.23;;
14187;SDS011;7175;51.978;5.330;2023-04-24T10:25:26;22.00;;;20.10;;
14187;SDS011;7175;51.978;5.330;2023-04-24T10:27:56;22.00;;;20.10;;
14187;SDS011;7175;51.978;5.330;2023-04-24T10:30:26;22.10;;;20.20;;
14187;SDS011;7175;51.978;5.330;2023-04-24T10:32:56;22.00;;;20.20;;
14187;SDS011;7175;51.978;5.330;2023-04-24T10:35:24;23.07;;;21.17;;
14187;SDS011;7175;51.978;5.330;2023-04-24T10:37:56;23.47;;;21.57;;
14187;SDS011;7175;51.978;5.330;2023-04-24T10:40:26;23.77;;;21.77;;
14187;SDS011;7175;51.978;5.330;2023-04-24T10:42:56;24.07;;;22.07;;
14187;SDS011;7175;51.978;5.330;2023-04-24T10:45:25;23.30;;;21.40;;
14187;SDS011;7175;51.978;5.330;2023-04-24T10:47:56;22.50;;;20.60;;
14187;SDS011;7175;51.978;5.330;2023-04-24T10:50:26;21.47;;;19.57;;
14187;SDS011;7175;51.978;5.330;2023-04-24T10:53:06;22.10;;;20.20;;
14187;SDS011;7175;51.978;5.330;2023-04-24T10:55:42;22.27;;;20.47;;
14187;SDS011;7175;51.978;5.330;2023-04-24T10:58:12;23.10;;;21.20;;
14187;SDS011;7175;51.978;5.330;2023-04-24T11:00:41;23.47;;;21.57;;
14187;SDS011;7175;51.978;5.330;2023-04-24T11:03:24;24.17;;;22.17;;
14187;SDS011;7175;51.978;5.330;2023-04-24T11:05:57;24.13;;;22.13;;
14187;SDS011;7175;51.978;5.330;2023-04-24T11:08:29;24.73;;;22.63;;
14187;SDS011;7175;51.978;5.330;2023-04-24T11:10:59;24.40;;;22.40;;
14187;SDS011;7175;51.978;5.330;2023-04-24T11:16:30;21.77;;;19.97;;
14187;SDS011;7175;51.978;5.330;2023-04-24T11:19:00;20.53;;;18.83;;
14187;SDS011;7175;51.978;5.330;2023-04-24T11:21:38;20.50;;;18.80;;
14187;SDS011;7175;51.978;5.330;2023-04-24T11:24:28;20.73;;;19.03;;
14187;SDS011;7175;51.978;5.330;2023-04-24T11:26:58;21.40;;;19.60;;
14187;SDS011;7175;51.978;5.330;2023-04-24T11:29:38;20.33;;;18.63;;
14187;SDS011;7175;51.978;5.330;2023-04-24T11:32:17;20.17;;;18.47;;
14187;SDS011;7175;51.978;5.330;2023-04-24T11:34:53;20.47;;;18.67;;
14187;SDS011;7175;51.978;5.330;2023-04-24T11:37:22;20.27;;;18.57;;
14187;SDS011;7175;51.978;5.330;2023-04-24T11:39:55;20.00;;;18.30;;
14187;SDS011;7175;51.978;5.330;2023-04-24T11:42:26;20.70;;;18.90;;
14187;SDS011;7175;51.978;5.330;2023-04-24T11:44:55;20.00;;;18.40;;
14187;SDS011;7175;51.978;5.330;2023-04-24T11:47:30;21.90;;;20.20;;
14187;SDS011;7175;51.978;5.330;2023-04-24T11:50:00;20.27;;;18.67;;
14187;SDS011;7175;51.978;5.330;2023-04-24T11:52:30;20.80;;;19.10;;
14187;SDS011;7175;51.978;5.330;2023-04-24T11:55:00;23.93;;;20.27;;
14187;SDS011;7175;51.978;5.330;2023-04-24T11:57:28;20.30;;;18.60;;
14187;SDS011;7175;51.978;5.330;2023-04-24T12:00:00;20.27;;;18.57;;
14187;SDS011;7175;51.978;5.330;2023-04-24T12:02:30;20.50;;;18.80;;
14187;SDS011;7175;51.978;5.330;2023-04-24T12:04:58;20.10;;;18.40;;
14187;SDS011;7175;51.978;5.330;2023-04-24T12:07:27;20.23;;;18.53;;
14187;SDS011;7175;51.978;5.330;2023-04-24T12:09:56;20.77;;;19.07;;
14187;SDS011;7175;51.978;5.330;2023-04-24T12:12:28;20.13;;;18.43;;
14187;SDS011;7175;51.978;5.330;2023-04-24T12:14:56;20.47;;;18.77;;
14187;SDS011;7175;51.978;5.330;2023-04-24T12:17:27;20.83;;;19.13;;
14187;SDS011;7175;51.978;5.330;2023-04-24T12:19:57;21.20;;;19.50;;
14187;SDS011;7175;51.978;5.330;2023-04-24T12:22:27;21.40;;;19.60;;
14187;SDS011;7175;51.978;5.330;2023-04-24T12:24:56;21.80;;;20.00;;
14187;SDS011;7175;51.978;5.330;2023-04-24T12:27:30;22.73;;;20.83;;
14187;SDS011;7175;51.978;5.330;2023-04-24T12:30:00;21.70;;;19.90;;
14187;SDS011;7175;51.978;5.330;2023-04-24T12:32:30;21.57;;;19.77;;
14187;SDS011;7175;51.978;5.330;2023-04-24T12:34:58;22.50;;;20.60;;
14187;SDS011;7175;51.978;5.330;2023-04-24T12:37:32;21.83;;;19.97;;
14187;SDS011;7175;51.978;5.330;2023-04-24T12:40:03;21.20;;;19.40;;
14187;SDS011;7175;51.978;5.330;2023-04-24T12:42:35;21.03;;;19.23;;
14187;SDS011;7175;51.978;5.330;2023-04-24T12:45:09;21.13;;;19.33;;
14187;SDS011;7175;51.978;5.330;2023-04-24T12:47:38;20.87;;;19.07;;
14187;SDS011;7175;51.978;5.330;2023-04-24T12:50:08;20.77;;;19.03;;
14187;SDS011;7175;51.978;5.330;2023-04-24T12:52:36;20.40;;;18.70;;
14187;SDS011;7175;51.978;5.330;2023-04-24T12:55:05;20.60;;;18.90;;
14187;SDS011;7175;51.978;5.330;2023-04-24T12:57:37;20.30;;;18.60;;
14187;SDS011;7175;51.978;5.330;2023-04-24T13:00:06;20.60;;;18.90;;
14187;SDS011;7175;51.978;5.330;2023-04-24T13:02:36;20.70;;;19.00;;
14187;SDS011;7175;51.978;5.330;2023-04-24T13:05:05;20.50;;;18.80;;
14187;SDS011;7175;51.978;5.330;2023-04-24T13:07:33;21.03;;;19.23;;
14187;SDS011;7175;51.978;5.330;2023-04-24T13:10:02;21.57;;;19.77;;
14187;SDS011;7175;51.978;5.330;2023-04-24T13:12:30;22.00;;;20.20;;
14187;SDS011;7175;51.978;5.330;2023-04-24T13:15:00;21.70;;;19.90;;
14187;SDS011;7175;51.978;5.330;2023-04-24T13:17:28;21.13;;;19.43;;
14187;SDS011;7175;51.978;5.330;2023-04-24T13:19:56;21.10;;;19.40;;
14187;SDS011;7175;51.978;5.330;2023-04-24T13:22:24;21.43;;;19.63;;
14187;SDS011;7175;51.978;5.330;2023-04-24T13:24:53;21.03;;;19.33;;
14187;SDS011;7175;51.978;5.330;2023-04-24T13:27:22;22.00;;;20.20;;
14187;SDS011;7175;51.978;5.330;2023-04-24T13:29:51;21.27;;;19.57;;
14187;SDS011;7175;51.978;5.330;2023-04-24T13:32:20;21.20;;;19.40;;
14187;SDS011;7175;51.978;5.330;2023-04-24T13:34:48;21.07;;;19.37;;
14187;SDS011;7175;51.978;5.330;2023-04-24T13:37:16;20.50;;;18.80;;
14187;SDS011;7175;51.978;5.330;2023-04-24T13:39:44;20.50;;;18.80;;
14187;SDS011;7175;51.978;5.330;2023-04-24T13:42:13;20.63;;;18.93;;
14187;SDS011;7175;51.978;5.330;2023-04-24T13:44:41;20.90;;;19.20;;
14187;SDS011;7175;51.978;5.330;2023-04-24T13:47:10;21.17;;;19.47;;
14187;SDS011;7175;51.978;5.330;2023-04-24T13:49:39;21.10;;;19.40;;
14187;SDS011;7175;51.978;5.330;2023-04-24T13:52:08;21.17;;;19.47;;
14187;SDS011;7175;51.978;5.330;2023-04-24T13:54:36;21.40;;;19.60;;
14187;SDS011;7175;51.978;5.330;2023-04-24T13:57:04;20.43;;;18.73;;
14187;SDS011;7175;51.978;5.330;2023-04-24T13:59:33;20.27;;;18.57;;
14187;SDS011;7175;51.978;5.330;2023-04-24T14:02:01;20.80;;;19.10;;
14187;SDS011;7175;51.978;5.330;2023-04-24T14:04:29;20.73;;;19.03;;
14187;SDS011;7175;51.978;5.330;2023-04-24T14:06:59;20.87;;;19.17;;
14187;SDS011;7175;51.978;5.330;2023-04-24T14:09:27;20.20;;;18.53;;
14187;SDS011;7175;51.978;5.330;2023-04-24T14:11:55;20.43;;;18.77;;
14187;SDS011;7175;51.978;5.330;2023-04-24T14:14:23;20.40;;;18.80;;
14187;SDS011;7175;51.978;5.330;2023-04-24T14:16:51;20.30;;;18.70;;
14187;SDS011;7175;51.978;5.330;2023-04-24T14:19:19;20.30;;;18.70;;
14187;SDS011;7175;51.978;5.330;2023-04-24T14:21:47;20.33;;;18.73;;
14187;SDS011;7175;51.978;5.330;2023-04-24T14:24:17;21.90;;;19.67;;
14187;SDS011;7175;51.978;5.330;2023-04-24T14:26:46;20.57;;;18.87;;
14187;SDS011;7175;51.978;5.330;2023-04-24T14:29:14;20.40;;;18.70;;
14187;SDS011;7175;51.978;5.330;2023-04-24T14:31:42;20.27;;;18.67;;
14187;SDS011;7175;51.978;5.330;2023-04-24T14:34:13;21.10;;;19.40;;
14187;SDS011;7175;51.978;5.330;2023-04-24T14:36:41;20.37;;;18.67;;
14187;SDS011;7175;51.978;5.330;2023-04-24T14:39:09;20.60;;;18.90;;